KARA/ARA METAR and TAF weather

Enter ICAO airport designator
Station Type Date Time Source
KARA METAR 2022/07/01 01:53 UTC NOAA

KARA 010153Z AUTO 07004KT 10SM CLR 26/23 A3001 RMK AO2 SLP160 T02610233


Station Type Date Time Source
KARA Decoded METAR 2022/07/01 01:53 UTC NOAA

NEW IBERIA ACADIANA REGIONAL, LA, United States (KARA) 30-02N 091-53W 18M
Jun 30, 2022 - 09:53 PM EDT / 2022.07.01 0153 UTC
Wind: from the ENE (070 degrees) at 5 MPH (4 KT):0
Visibility: 10 mile(s):0
Sky conditions: clear
Temperature: 79.0 F (26.1 C)
Dew Point: 73.9 F (23.3 C)
Relative Humidity: 84%
Pressure (altimeter): 30.01 in. Hg (1016 hPa)
ob: KARA 010153Z AUTO 07004KT 10SM CLR 26/23 A3001 RMK AO2 SLP160 T02610233
cycle: 2

Station Type Date Time Source
KARA TAF 2022/06/30 18:45 UTC NOAA

TAF KARA 301736Z 3018/0118 VRB05KT P6SM VCSH FEW050 OVC100
FM010100 VRB05KT P6SM BKN200
FM011500 VRB05KT P6SM SCT035 BKN200

Example: see airport list